createdAt,value
2022-12-22T00:00:05.633Z,11.23
2022-12-22T00:02:35.812Z,11.22
2022-12-22T00:05:09.598Z,11.19
2022-12-22T00:07:39.554Z,11.16
2022-12-22T00:10:09.865Z,11.13
2022-12-22T00:12:40.280Z,11.12
2022-12-22T00:15:11.033Z,11.13
2022-12-22T00:17:41.064Z,11.13
2022-12-22T00:20:18.695Z,11.15
2022-12-22T00:22:48.817Z,11.14
2022-12-22T00:25:19.873Z,11.14
2022-12-22T00:27:49.783Z,11.14
2022-12-22T00:30:20.566Z,11.15
2022-12-22T00:32:51.353Z,11.17
2022-12-22T00:35:24.493Z,11.16
2022-12-22T00:37:54.430Z,11.16
2022-12-22T00:40:26.629Z,11.20
2022-12-22T00:42:56.588Z,11.20
2022-12-22T00:45:26.666Z,11.21
2022-12-22T00:47:56.708Z,11.22
2022-12-22T00:50:31.216Z,11.24
2022-12-22T00:53:02.355Z,11.26
2022-12-22T00:55:34.144Z,11.25
2022-12-22T00:58:04.844Z,11.26
2022-12-22T01:00:34.825Z,11.26
2022-12-22T01:03:04.949Z,11.26
2022-12-22T01:05:35.146Z,11.27
2022-12-22T01:08:05.410Z,11.25
2022-12-22T01:10:35.577Z,11.23
2022-12-22T01:13:05.526Z,11.23
2022-12-22T01:15:35.558Z,11.23
2022-12-22T01:18:05.574Z,11.21
2022-12-22T01:20:35.644Z,11.20
2022-12-22T01:23:05.578Z,11.19
2022-12-22T01:25:35.630Z,11.18
2022-12-22T01:28:05.598Z,11.11
2022-12-22T01:30:35.617Z,11.10
2022-12-22T01:33:05.708Z,11.07
2022-12-22T01:35:37.240Z,11.08
2022-12-22T01:38:07.149Z,11.07
2022-12-22T01:40:37.228Z,11.08
2022-12-22T01:43:21.711Z,11.08
2022-12-22T01:45:51.783Z,11.08
2022-12-22T01:48:23.297Z,11.08
2022-12-22T01:50:53.370Z,11.09
2022-12-22T01:53:26.663Z,11.09
2022-12-22T01:55:57.036Z,11.06
2022-12-22T01:58:30.476Z,11.03
2022-12-22T02:01:00.419Z,11.01
2022-12-22T02:03:30.394Z,11.00
2022-12-22T02:06:08.882Z,10.99
2022-12-22T02:08:45.718Z,10.97
2022-12-22T02:11:18.781Z,10.96
2022-12-22T02:13:51.945Z,10.94
2022-12-22T02:16:26.051Z,10.93
2022-12-22T02:18:59.220Z,10.92
2022-12-22T02:21:32.246Z,10.92
2022-12-22T02:24:05.364Z,10.90
2022-12-22T02:26:37.706Z,10.89
2022-12-22T02:29:08.589Z,10.87
2022-12-22T02:31:41.012Z,10.88
2022-12-22T02:34:14.148Z,10.90
2022-12-22T02:36:47.284Z,10.88
2022-12-22T02:39:20.419Z,10.84
2022-12-22T02:41:57.865Z,10.85
2022-12-22T02:44:30.822Z,10.84
2022-12-22T02:47:02.161Z,10.82
2022-12-22T02:49:38.900Z,10.83
2022-12-22T02:52:14.134Z,10.82
2022-12-22T02:54:44.096Z,10.80
2022-12-22T02:57:14.033Z,10.80
2022-12-22T02:59:44.200Z,10.77
2022-12-22T03:02:14.662Z,10.78
2022-12-22T03:04:44.842Z,10.75
2022-12-22T03:07:14.786Z,10.76
2022-12-22T03:09:44.741Z,10.78
2022-12-22T03:12:14.728Z,10.77
2022-12-22T03:14:44.688Z,10.75
2022-12-22T03:17:14.753Z,10.76
2022-12-22T03:19:44.730Z,10.76
2022-12-22T03:22:14.760Z,10.77
2022-12-22T03:24:44.671Z,10.75
2022-12-22T03:27:11.701Z,10.73
2022-12-22T03:29:38.582Z,10.71
2022-12-22T03:32:05.714Z,10.70
2022-12-22T03:34:32.564Z,10.69
2022-12-22T03:36:59.545Z,10.67
2022-12-22T03:39:26.512Z,10.65
2022-12-22T03:41:56.496Z,10.64
2022-12-22T03:44:26.353Z,10.63
2022-12-22T03:46:53.363Z,10.60
2022-12-22T03:49:22.606Z,10.60
2022-12-22T03:51:51.329Z,10.58
2022-12-22T03:54:19.417Z,10.56
2022-12-22T03:56:46.927Z,10.55
2022-12-22T03:59:14.330Z,10.57
2022-12-22T04:01:43.118Z,10.49
2022-12-22T04:04:10.988Z,10.45
2022-12-22T04:06:37.913Z,10.45
2022-12-22T04:09:04.822Z,10.46
2022-12-22T04:11:34.781Z,10.46
2022-12-22T04:14:01.923Z,10.46
2022-12-22T04:16:29.099Z,10.46
2022-12-22T04:18:56.302Z,10.46
2022-12-22T04:21:23.128Z,10.45
2022-12-22T04:23:51.539Z,10.45
2022-12-22T04:26:19.641Z,10.45
2022-12-22T04:28:46.981Z,10.47
2022-12-22T04:31:14.002Z,10.41
2022-12-22T04:33:40.853Z,10.40
2022-12-22T04:36:08.201Z,10.39
2022-12-22T04:38:35.459Z,10.39
2022-12-22T04:41:02.601Z,10.41
2022-12-22T04:43:29.468Z,10.40
2022-12-22T04:45:57.034Z,10.38
2022-12-22T04:48:24.347Z,10.35
2022-12-22T04:50:53.062Z,10.30
2022-12-22T04:53:20.588Z,10.31
2022-12-22T04:55:48.588Z,10.33
2022-12-22T04:58:15.935Z,10.31
2022-12-22T05:00:43.064Z,10.30
2022-12-22T05:03:10.367Z,10.29
2022-12-22T05:05:37.373Z,10.24
2022-12-22T05:08:04.981Z,10.22
2022-12-22T05:10:31.822Z,10.20
2022-12-22T05:12:58.740Z,10.20
2022-12-22T05:15:27.071Z,10.20
2022-12-22T05:17:54.198Z,10.21
2022-12-22T05:20:21.543Z,10.22
2022-12-22T05:22:48.457Z,10.20
2022-12-22T05:25:16.993Z,10.20
2022-12-22T05:27:44.964Z,10.18
2022-12-22T05:30:12.227Z,10.17
2022-12-22T05:32:39.276Z,10.14
2022-12-22T05:35:07.063Z,10.12
2022-12-22T05:37:34.195Z,10.11
2022-12-22T05:40:01.074Z,10.10
2022-12-22T05:42:31.150Z,10.06
2022-12-22T05:44:58.019Z,10.01
2022-12-22T05:47:24.864Z,10.00
2022-12-22T05:49:51.708Z,9.98
2022-12-22T05:52:18.581Z,9.99
2022-12-22T05:54:45.545Z,9.99
2022-12-22T05:57:12.391Z,9.97
2022-12-22T05:59:39.402Z,9.97
2022-12-22T06:02:06.440Z,9.93
2022-12-22T06:04:33.660Z,9.92
2022-12-22T06:07:00.506Z,9.86
2022-12-22T06:09:27.461Z,9.85
2022-12-22T06:11:54.289Z,9.83
2022-12-22T06:14:21.253Z,9.83
2022-12-22T06:16:48.100Z,9.83
2022-12-22T06:19:14.939Z,9.81
2022-12-22T06:21:41.740Z,9.80
2022-12-22T06:24:08.788Z,9.80
2022-12-22T06:26:35.626Z,9.77
2022-12-22T06:29:02.582Z,9.75
2022-12-22T06:31:29.570Z,9.78
2022-12-22T06:33:56.615Z,9.76
2022-12-22T06:36:23.463Z,9.76
2022-12-22T06:38:50.279Z,9.76
2022-12-22T06:41:37.055Z,9.76
2022-12-22T06:44:04.105Z,9.74
2022-12-22T06:46:31.128Z,9.69
2022-12-22T06:48:57.986Z,9.69
2022-12-22T06:51:24.907Z,9.67
2022-12-22T06:53:53.074Z,9.68
2022-12-22T06:56:20.023Z,9.70
2022-12-22T06:58:46.836Z,9.70
2022-12-22T07:01:13.721Z,9.67
2022-12-22T07:03:40.678Z,9.66
2022-12-22T07:06:07.902Z,9.67
2022-12-22T07:08:34.750Z,9.70
2022-12-22T07:11:01.723Z,9.68
2022-12-22T07:13:30.541Z,9.66
2022-12-22T07:16:01.205Z,9.61
2022-12-22T07:18:30.111Z,9.58
2022-12-22T07:20:57.320Z,9.55
2022-12-22T07:23:24.820Z,9.56
2022-12-22T07:25:51.936Z,9.58
2022-12-22T07:28:21.139Z,9.60
2022-12-22T07:30:49.979Z,9.60
2022-12-22T07:33:17.378Z,9.62
2022-12-22T07:35:44.337Z,9.60
2022-12-22T07:38:11.242Z,9.59
2022-12-22T07:40:43.124Z,9.58
2022-12-22T07:43:11.309Z,9.57
2022-12-22T07:45:38.439Z,9.53
2022-12-22T07:48:25.221Z,9.52
2022-12-22T07:50:52.175Z,9.49
2022-12-22T07:53:19.068Z,9.44
2022-12-22T07:55:46.012Z,9.43
2022-12-22T07:58:12.845Z,9.42
2022-12-22T08:00:39.746Z,9.42
2022-12-22T08:03:06.920Z,9.42
2022-12-22T08:05:33.950Z,9.37
2022-12-22T08:08:00.990Z,9.37
2022-12-22T08:10:27.804Z,9.36
2022-12-22T08:12:55.330Z,9.38
2022-12-22T08:15:22.279Z,9.40
2022-12-22T08:17:49.189Z,9.40
2022-12-22T08:20:16.278Z,9.39
2022-12-22T08:22:43.243Z,9.38
2022-12-22T08:25:10.179Z,9.40
2022-12-22T08:27:40.752Z,9.39
2022-12-22T08:30:08.309Z,9.38
2022-12-22T08:32:36.662Z,9.40
2022-12-22T08:35:04.666Z,9.44
2022-12-22T08:37:34.022Z,9.50
2022-12-22T08:40:03.251Z,9.54
2022-12-22T08:42:30.753Z,9.58
2022-12-22T08:44:57.678Z,9.59
2022-12-22T08:47:24.719Z,9.60
2022-12-22T08:49:51.721Z,9.60
2022-12-22T08:52:19.392Z,9.61
2022-12-22T08:54:47.066Z,9.64
2022-12-22T08:57:14.018Z,9.67
2022-12-22T08:59:40.912Z,9.70
2022-12-22T09:02:07.920Z,9.69
2022-12-22T09:04:35.395Z,9.70
2022-12-22T09:07:03.954Z,9.71
2022-12-22T09:09:33.093Z,9.72
2022-12-22T09:12:00.279Z,9.75
2022-12-22T09:14:27.957Z,9.76
2022-12-22T09:16:55.073Z,9.77
2022-12-22T09:19:22.450Z,9.78
2022-12-22T09:21:49.625Z,9.80
2022-12-22T09:24:16.807Z,9.81
2022-12-22T09:26:43.918Z,9.83
2022-12-22T09:29:10.961Z,9.86
2022-12-22T09:31:38.008Z,9.91
2022-12-22T09:34:04.997Z,9.94
2022-12-22T09:36:32.267Z,9.97
2022-12-22T09:38:59.132Z,9.99
2022-12-22T09:41:26.505Z,9.99
2022-12-22T09:43:53.668Z,10.04
2022-12-22T09:46:23.881Z,10.08
2022-12-22T09:48:51.263Z,10.11
2022-12-22T09:51:26.171Z,10.16
2022-12-22T09:53:57.388Z,10.19
2022-12-22T09:56:25.710Z,10.23
2022-12-22T09:58:52.664Z,10.27
2022-12-22T10:01:22.780Z,10.32
2022-12-22T10:03:59.924Z,10.36
2022-12-22T10:06:30.751Z,10.39
2022-12-22T10:09:05.371Z,10.45
2022-12-22T10:11:33.323Z,10.49
2022-12-22T10:14:00.299Z,10.56
2022-12-22T10:16:28.893Z,10.61
2022-12-22T10:18:58.522Z,10.67
2022-12-22T10:21:26.633Z,10.72
2022-12-22T10:23:53.930Z,10.78
2022-12-22T10:26:31.453Z,10.84
2022-12-22T10:28:59.245Z,10.92
2022-12-22T10:31:28.203Z,10.96
2022-12-22T10:33:56.645Z,11.03
2022-12-22T10:36:26.692Z,11.10
2022-12-22T10:38:54.526Z,11.18
2022-12-22T10:41:22.911Z,11.24
2022-12-22T10:43:52.286Z,11.29
2022-12-22T10:46:20.859Z,11.34
2022-12-22T10:48:48.035Z,11.36
2022-12-22T10:51:15.992Z,11.40
2022-12-22T10:53:46.538Z,11.43
2022-12-22T10:56:16.617Z,11.47
2022-12-22T10:58:46.774Z,11.51
2022-12-22T11:01:14.191Z,11.55
2022-12-22T11:03:41.340Z,11.57
2022-12-22T11:06:13.010Z,11.59
2022-12-22T11:08:39.969Z,11.60
2022-12-22T11:11:11.088Z,11.61
2022-12-22T11:13:39.597Z,11.66
2022-12-22T11:16:10.283Z,11.71
2022-12-22T11:18:37.815Z,11.76
2022-12-22T11:21:07.962Z,11.80
2022-12-22T11:23:38.123Z,11.84
2022-12-22T11:26:08.220Z,11.90
2022-12-22T11:28:38.335Z,11.92
2022-12-22T11:31:13.476Z,11.95
2022-12-22T11:33:43.573Z,11.98
2022-12-22T11:36:15.975Z,12.03
2022-12-22T11:38:47.077Z,12.06
2022-12-22T11:41:27.446Z,12.11
2022-12-22T11:43:55.801Z,12.16
2022-12-22T11:46:26.025Z,12.22
2022-12-22T11:48:56.334Z,12.22
2022-12-22T11:51:30.556Z,12.24
2022-12-22T11:53:58.035Z,12.27
2022-12-22T11:56:29.783Z,12.28
2022-12-22T11:58:59.754Z,12.32
2022-12-22T12:01:29.863Z,12.36
2022-12-22T12:03:59.968Z,12.41
2022-12-22T12:06:30.098Z,12.44
2022-12-22T12:08:57.413Z,12.49
2022-12-22T12:11:24.799Z,12.54
2022-12-22T12:14:00.777Z,12.56
2022-12-22T12:16:31.026Z,12.60
2022-12-22T12:18:59.709Z,12.65
2022-12-22T12:21:27.317Z,12.70
2022-12-22T12:23:58.400Z,12.73
2022-12-22T12:26:29.555Z,12.77
2022-12-22T12:29:06.172Z,12.79
2022-12-22T12:31:35.906Z,12.83
2022-12-22T12:34:04.049Z,12.87
2022-12-22T12:36:34.253Z,12.91
2022-12-22T12:39:09.210Z,12.95
2022-12-22T12:41:45.629Z,12.98
2022-12-22T12:44:14.989Z,13.00
2022-12-22T12:46:45.451Z,13.02
2022-12-22T12:49:32.613Z,13.07
2022-12-22T12:52:01.805Z,13.05
2022-12-22T12:54:29.198Z,13.06
2022-12-22T12:56:59.257Z,13.08
2022-12-22T12:59:29.442Z,13.08
2022-12-22T13:01:57.999Z,13.09
2022-12-22T13:04:28.573Z,13.10
2022-12-22T13:06:55.904Z,13.10
2022-12-22T13:09:50.548Z,13.08
2022-12-22T13:12:19.687Z,13.04
2022-12-22T13:14:53.126Z,13.01
2022-12-22T13:17:23.355Z,13.00
2022-12-22T13:19:51.749Z,12.99
2022-12-22T13:22:18.941Z,12.99
2022-12-22T13:24:49.154Z,12.99
2022-12-22T13:27:16.952Z,13.03
2022-12-22T13:29:47.987Z,13.05
2022-12-22T13:32:18.136Z,13.08
2022-12-22T13:35:04.915Z,13.09
2022-12-22T13:37:39.247Z,13.13
2022-12-22T13:40:08.206Z,13.18
2022-12-22T13:42:36.672Z,13.18
2022-12-22T13:45:04.408Z,13.19
2022-12-22T13:47:32.392Z,13.19
2022-12-22T13:50:08.919Z,13.19
2022-12-22T13:52:36.961Z,13.20
2022-12-22T13:55:04.296Z,13.21
2022-12-22T13:57:31.303Z,13.21
2022-12-22T13:59:58.375Z,13.23
2022-12-22T14:02:25.440Z,13.23
2022-12-22T14:05:03.548Z,13.23
2022-12-22T14:07:31.829Z,13.22
2022-12-22T14:09:59.072Z,13.21
2022-12-22T14:12:28.320Z,13.20
2022-12-22T14:14:56.062Z,13.19
2022-12-22T14:17:25.360Z,13.19
2022-12-22T14:19:55.819Z,13.18
2022-12-22T14:22:27.376Z,13.17
2022-12-22T14:24:56.565Z,13.17
2022-12-22T14:27:31.357Z,13.15
2022-12-22T14:30:00.974Z,13.14
2022-12-22T14:32:30.991Z,13.14
2022-12-22T14:34:58.370Z,13.12
2022-12-22T14:37:32.410Z,13.10
2022-12-22T14:40:00.315Z,13.11
2022-12-22T14:42:27.532Z,13.10
2022-12-22T14:44:54.806Z,13.07
2022-12-22T14:47:25.902Z,13.05
2022-12-22T14:49:54.399Z,13.04
2022-12-22T14:52:22.283Z,13.05
2022-12-22T14:54:50.749Z,13.06
2022-12-22T14:57:21.267Z,13.05
2022-12-22T14:59:51.525Z,13.05
2022-12-22T15:02:26.312Z,13.05
2022-12-22T15:04:56.350Z,13.02
2022-12-22T15:08:03.147Z,13.04
2022-12-22T15:10:15.653Z,13.03
2022-12-22T15:12:44.490Z,13.01
2022-12-22T15:15:14.600Z,13.00
2022-12-22T15:17:41.715Z,13.00
2022-12-22T15:20:13.888Z,12.99
2022-12-22T15:22:40.947Z,13.00
2022-12-22T15:25:12.932Z,12.97
2022-12-22T15:27:40.118Z,12.97
2022-12-22T15:30:07.792Z,12.96
2022-12-22T15:32:38.044Z,12.95
2022-12-22T15:35:14.844Z,12.93
2022-12-22T15:37:41.925Z,12.96
2022-12-22T15:40:12.161Z,12.94
2022-12-22T15:42:39.066Z,12.94
2022-12-22T15:45:06.612Z,12.91
2022-12-22T15:47:33.663Z,12.92
2022-12-22T15:50:00.935Z,12.94
2022-12-22T15:52:27.949Z,12.95
2022-12-22T15:54:55.195Z,12.96
2022-12-22T15:57:22.482Z,12.96
2022-12-22T15:59:49.595Z,12.93
2022-12-22T16:02:16.654Z,12.93
2022-12-22T16:04:43.904Z,12.92
2022-12-22T16:07:12.708Z,12.90
2022-12-22T16:09:41.730Z,12.89
2022-12-22T16:12:13.047Z,12.88
2022-12-22T16:14:46.460Z,12.90
2022-12-22T16:17:18.506Z,12.90
2022-12-22T16:19:45.812Z,12.89
2022-12-22T16:22:14.246Z,12.90
2022-12-22T16:24:43.221Z,12.90
2022-12-22T16:27:11.703Z,12.90
2022-12-22T16:29:39.357Z,12.87
2022-12-22T16:32:15.307Z,12.84
2022-12-22T16:34:45.135Z,12.84
2022-12-22T16:37:12.255Z,12.86
2022-12-22T16:39:39.239Z,12.88
2022-12-22T16:42:06.946Z,12.91
2022-12-22T16:44:34.069Z,12.92
2022-12-22T16:47:03.441Z,12.90
2022-12-22T16:49:30.546Z,12.89
2022-12-22T16:51:57.680Z,12.88
2022-12-22T16:54:24.646Z,12.89
2022-12-22T16:56:52.243Z,12.86
2022-12-22T16:59:19.587Z,12.89
2022-12-22T17:01:50.372Z,12.92
2022-12-22T17:04:20.812Z,12.91
2022-12-22T17:06:49.023Z,12.90
2022-12-22T17:09:19.399Z,12.92
2022-12-22T17:11:46.933Z,12.90
2022-12-22T17:14:17.661Z,12.89
2022-12-22T17:16:44.793Z,12.91
2022-12-22T17:19:12.346Z,12.90
2022-12-22T17:21:39.398Z,12.93
2022-12-22T17:24:06.562Z,12.93
2022-12-22T17:26:36.678Z,12.94
2022-12-22T17:29:04.802Z,12.95
2022-12-22T17:31:32.078Z,12.95
2022-12-22T17:33:59.083Z,12.94
2022-12-22T17:36:30.748Z,12.94
2022-12-22T17:38:58.288Z,12.96
2022-12-22T17:41:25.491Z,12.95
2022-12-22T17:43:52.446Z,12.96
2022-12-22T17:46:21.435Z,12.95
2022-12-22T17:48:49.381Z,12.95
2022-12-22T17:51:17.894Z,12.93
2022-12-22T17:53:45.732Z,12.93
2022-12-22T17:56:15.506Z,12.94
2022-12-22T17:58:46.538Z,12.97
2022-12-22T18:01:19.494Z,12.98
2022-12-22T18:03:46.686Z,12.96
2022-12-22T18:06:17.978Z,12.98
2022-12-22T18:08:45.527Z,12.98
2022-12-22T18:11:12.952Z,12.94
2022-12-22T18:13:40.211Z,12.94
2022-12-22T18:16:07.874Z,12.96
2022-12-22T18:18:35.303Z,12.95
2022-12-22T18:21:07.364Z,12.95
2022-12-22T18:23:37.190Z,12.95
2022-12-22T18:26:05.405Z,12.94
2022-12-22T18:28:32.392Z,12.92
2022-12-22T18:31:00.952Z,12.95
2022-12-22T18:33:28.317Z,12.94
2022-12-22T18:35:55.595Z,12.93
2022-12-22T18:38:25.564Z,12.91
2022-12-22T18:40:52.615Z,12.95
2022-12-22T18:43:19.696Z,12.96
2022-12-22T18:45:46.835Z,12.98
2022-12-22T18:48:13.883Z,12.94
2022-12-22T18:50:41.411Z,12.92
2022-12-22T18:53:17.415Z,12.91
2022-12-22T18:55:46.075Z,12.90
2022-12-22T18:58:15.342Z,12.89
2022-12-22T19:00:42.834Z,12.89
2022-12-22T19:03:13.111Z,12.91
2022-12-22T19:05:40.979Z,12.92
2022-12-22T19:08:13.456Z,12.91
2022-12-22T19:10:41.707Z,12.92
2022-12-22T19:13:16.212Z,12.91
2022-12-22T19:15:46.051Z,12.90
2022-12-22T19:18:18.621Z,12.89
2022-12-22T19:20:48.694Z,12.89
2022-12-22T19:23:16.606Z,12.90
2022-12-22T19:25:44.670Z,12.91
2022-12-22T19:28:14.642Z,12.93
2022-12-22T19:30:41.670Z,12.93
2022-12-22T19:33:16.150Z,12.92
2022-12-22T19:35:43.027Z,12.92
2022-12-22T19:38:12.973Z,12.93
2022-12-22T19:40:40.060Z,12.92
2022-12-22T19:43:09.387Z,12.92
2022-12-22T19:45:37.073Z,12.93
2022-12-22T19:48:04.823Z,12.93
2022-12-22T19:50:32.363Z,12.94
2022-12-22T19:52:59.904Z,12.95
2022-12-22T19:55:28.549Z,12.95
2022-12-22T19:57:56.146Z,12.95
2022-12-22T20:00:25.014Z,12.96
2022-12-22T20:02:53.314Z,12.97
2022-12-22T20:05:23.386Z,12.97
2022-12-22T20:07:51.394Z,12.96
2022-12-22T20:10:18.832Z,12.95
2022-12-22T20:12:47.454Z,12.95
2022-12-22T20:15:16.213Z,12.95
2022-12-22T20:17:43.156Z,12.91
2022-12-22T20:20:14.567Z,12.91
2022-12-22T20:22:44.996Z,12.92
2022-12-22T20:25:15.047Z,12.93
2022-12-22T20:27:42.291Z,12.94
2022-12-22T20:30:12.245Z,12.97
2022-12-22T20:32:39.135Z,12.95
2022-12-22T20:35:06.293Z,12.94
2022-12-22T20:37:33.341Z,12.93
2022-12-22T20:40:00.376Z,12.93
2022-12-22T20:42:27.477Z,12.91
2022-12-22T20:45:02.792Z,12.93
2022-12-22T20:47:33.357Z,12.94
2022-12-22T20:50:00.372Z,12.93
2022-12-22T20:52:27.443Z,12.93
2022-12-22T20:54:54.447Z,12.92
2022-12-22T20:57:22.136Z,12.91
2022-12-22T20:59:55.700Z,12.90
2022-12-22T21:02:24.524Z,12.89
2022-12-22T21:04:51.671Z,12.89
2022-12-22T21:07:20.187Z,12.88
2022-12-22T21:09:47.349Z,12.90
2022-12-22T21:12:14.259Z,12.89
2022-12-22T21:14:41.257Z,12.88
2022-12-22T21:17:11.465Z,12.87
2022-12-22T21:19:38.743Z,12.86
2022-12-22T21:22:05.924Z,12.84
2022-12-22T21:24:32.982Z,12.84
2022-12-22T21:26:59.931Z,12.85
2022-12-22T21:29:27.629Z,12.84
2022-12-22T21:31:54.599Z,12.85
2022-12-22T21:34:21.613Z,12.85
2022-12-22T21:36:50.184Z,12.86
2022-12-22T21:39:20.387Z,12.82
2022-12-22T21:41:50.368Z,12.84
2022-12-22T21:44:17.463Z,12.85
2022-12-22T21:46:45.618Z,12.86
2022-12-22T21:49:15.662Z,12.86
2022-12-22T21:51:43.928Z,12.86
2022-12-22T21:54:10.827Z,12.88
2022-12-22T21:56:37.956Z,12.86
2022-12-22T21:59:04.866Z,12.85
2022-12-22T22:01:32.484Z,12.84
2022-12-22T22:03:59.719Z,12.82
2022-12-22T22:06:27.058Z,12.81
2022-12-22T22:08:53.996Z,12.81
2022-12-22T22:11:22.220Z,12.80
2022-12-22T22:13:49.240Z,12.81
2022-12-22T22:16:16.399Z,12.80
2022-12-22T22:18:44.672Z,12.82
2022-12-22T22:21:12.356Z,12.82
2022-12-22T22:23:39.776Z,12.80
2022-12-22T22:26:07.267Z,12.78
2022-12-22T22:28:34.429Z,12.74
2022-12-22T22:31:02.762Z,12.75
2022-12-22T22:33:29.821Z,12.76
2022-12-22T22:36:02.108Z,12.76
2022-12-22T22:38:32.570Z,12.75
2022-12-22T22:40:59.732Z,12.74
2022-12-22T22:43:26.986Z,12.74
2022-12-22T22:45:53.944Z,12.74
2022-12-22T22:48:22.125Z,12.74
2022-12-22T22:50:49.419Z,12.75
2022-12-22T22:53:16.781Z,12.75
2022-12-22T22:55:44.087Z,12.75
2022-12-22T22:58:11.859Z,12.74
2022-12-22T23:00:39.749Z,12.73
2022-12-22T23:03:07.043Z,12.73
2022-12-22T23:05:34.169Z,12.72
2022-12-22T23:08:01.597Z,12.74
2022-12-22T23:10:28.557Z,12.74
2022-12-22T23:12:55.620Z,12.73
2022-12-22T23:15:22.690Z,12.74
2022-12-22T23:17:51.012Z,12.75
2022-12-22T23:20:18.175Z,12.77
2022-12-22T23:22:47.190Z,12.75
2022-12-22T23:25:14.468Z,12.75
2022-12-22T23:27:41.837Z,12.73
2022-12-22T23:30:09.914Z,12.73
2022-12-22T23:32:37.082Z,12.74
2022-12-22T23:35:04.221Z,12.72
2022-12-22T23:37:31.412Z,12.71
2022-12-22T23:40:10.887Z,12.71
2022-12-22T23:42:45.513Z,12.70
2022-12-22T23:45:12.547Z,12.68
2022-12-22T23:47:39.732Z,12.69
2022-12-22T23:50:07.420Z,12.68
2022-12-22T23:52:34.465Z,12.66
2022-12-22T23:55:01.678Z,12.67
2022-12-22T23:57:28.691Z,12.68
2022-12-22T23:59:55.751Z,12.66
